sensor_id;sensor_type;location;lat;lon;timestamp;P1;durP1;ratioP1;P2;durP2;ratioP2
38166;SDS011;23980;51.902;12.832;2022-08-26T00:04:12;24.60;;;11.20;;
38166;SDS011;23980;51.902;12.832;2022-08-26T00:09:16;19.25;;;11.05;;
38166;SDS011;23980;51.902;12.832;2022-08-26T00:14:17;18.25;;;11.43;;
38166;SDS011;23980;51.902;12.832;2022-08-26T00:19:19;25.60;;;11.52;;
38166;SDS011;23980;51.902;12.832;2022-08-26T00:24:20;23.20;;;11.32;;
38166;SDS011;23980;51.902;12.832;2022-08-26T00:29:21;22.35;;;10.75;;
38166;SDS011;23980;51.902;12.832;2022-08-26T00:34:37;17.23;;;11.43;;
38166;SDS011;23980;51.902;12.832;2022-08-26T00:39:37;23.67;;;9.95;;
38166;SDS011;23980;51.902;12.832;2022-08-26T00:44:46;23.95;;;12.43;;
38166;SDS011;23980;51.902;12.832;2022-08-26T00:49:49;23.42;;;11.10;;
38166;SDS011;23980;51.902;12.832;2022-08-26T00:55:02;22.25;;;10.57;;
38166;SDS011;23980;51.902;12.832;2022-08-26T01:00:21;23.50;;;10.70;;
38166;SDS011;23980;51.902;12.832;2022-08-26T01:05:26;19.35;;;10.73;;
38166;SDS011;23980;51.902;12.832;2022-08-26T01:10:27;27.17;;;11.05;;
38166;SDS011;23980;51.902;12.832;2022-08-26T01:15:51;22.10;;;10.82;;
38166;SDS011;23980;51.902;12.832;2022-08-26T01:20:57;26.05;;;11.13;;
38166;SDS011;23980;51.902;12.832;2022-08-26T01:26:32;28.33;;;12.00;;
38166;SDS011;23980;51.902;12.832;2022-08-26T01:31:51;21.88;;;11.25;;
38166;SDS011;23980;51.902;12.832;2022-08-26T01:37:05;24.80;;;11.75;;
38166;SDS011;23980;51.902;12.832;2022-08-26T01:42:10;21.85;;;12.90;;
38166;SDS011;23980;51.902;12.832;2022-08-26T01:47:13;28.00;;;13.93;;
38166;SDS011;23980;51.902;12.832;2022-08-26T01:57:27;26.67;;;13.85;;
38166;SDS011;23980;51.902;12.832;2022-08-26T02:02:32;34.92;;;13.23;;
38166;SDS011;23980;51.902;12.832;2022-08-26T02:07:33;27.15;;;13.57;;
38166;SDS011;23980;51.902;12.832;2022-08-26T02:12:33;30.17;;;12.95;;
38166;SDS011;23980;51.902;12.832;2022-08-26T02:17:37;23.00;;;11.75;;
38166;SDS011;23980;51.902;12.832;2022-08-26T02:22:41;27.02;;;13.10;;
38166;SDS011;23980;51.902;12.832;2022-08-26T02:27:43;27.48;;;12.63;;
38166;SDS011;23980;51.902;12.832;2022-08-26T02:32:46;23.98;;;12.82;;
38166;SDS011;23980;51.902;12.832;2022-08-26T02:37:48;20.80;;;11.52;;
38166;SDS011;23980;51.902;12.832;2022-08-26T02:42:50;30.42;;;13.85;;
38166;SDS011;23980;51.902;12.832;2022-08-26T02:47:52;23.63;;;12.93;;
38166;SDS011;23980;51.902;12.832;2022-08-26T02:52:52;23.52;;;14.80;;
38166;SDS011;23980;51.902;12.832;2022-08-26T02:57:53;31.50;;;14.40;;
38166;SDS011;23980;51.902;12.832;2022-08-26T03:02:54;26.45;;;15.30;;
38166;SDS011;23980;51.902;12.832;2022-08-26T03:08:04;27.25;;;14.85;;
38166;SDS011;23980;51.902;12.832;2022-08-26T03:13:05;27.33;;;13.63;;
38166;SDS011;23980;51.902;12.832;2022-08-26T03:18:06;24.63;;;15.43;;
38166;SDS011;23980;51.902;12.832;2022-08-26T03:23:06;29.55;;;14.77;;
38166;SDS011;23980;51.902;12.832;2022-08-26T03:28:07;26.33;;;13.77;;
38166;SDS011;23980;51.902;12.832;2022-08-26T03:33:08;31.52;;;15.05;;
38166;SDS011;23980;51.902;12.832;2022-08-26T03:38:10;32.40;;;15.48;;
38166;SDS011;23980;51.902;12.832;2022-08-26T03:43:14;26.25;;;14.65;;
38166;SDS011;23980;51.902;12.832;2022-08-26T03:48:15;26.10;;;16.13;;
38166;SDS011;23980;51.902;12.832;2022-08-26T03:53:16;25.80;;;15.05;;
38166;SDS011;23980;51.902;12.832;2022-08-26T03:58:16;26.65;;;15.15;;
38166;SDS011;23980;51.902;12.832;2022-08-26T04:03:17;22.83;;;16.20;;
38166;SDS011;23980;51.902;12.832;2022-08-26T04:08:41;31.30;;;16.48;;
38166;SDS011;23980;51.902;12.832;2022-08-26T04:13:43;34.38;;;15.30;;
38166;SDS011;23980;51.902;12.832;2022-08-26T04:18:44;34.95;;;15.15;;
38166;SDS011;23980;51.902;12.832;2022-08-26T04:23:45;28.92;;;15.40;;
38166;SDS011;23980;51.902;12.832;2022-08-26T04:28:46;42.40;;;19.30;;
38166;SDS011;23980;51.902;12.832;2022-08-26T04:33:48;36.80;;;16.20;;
38166;SDS011;23980;51.902;12.832;2022-08-26T04:38:49;28.25;;;16.38;;
38166;SDS011;23980;51.902;12.832;2022-08-26T04:43:50;31.08;;;15.75;;
38166;SDS011;23980;51.902;12.832;2022-08-26T04:48:52;32.30;;;17.48;;
38166;SDS011;23980;51.902;12.832;2022-08-26T04:53:56;22.13;;;16.88;;
38166;SDS011;23980;51.902;12.832;2022-08-26T04:58:58;26.83;;;16.65;;
38166;SDS011;23980;51.902;12.832;2022-08-26T05:03:59;41.97;;;18.48;;
38166;SDS011;23980;51.902;12.832;2022-08-26T05:09:01;33.35;;;18.67;;
38166;SDS011;23980;51.902;12.832;2022-08-26T05:14:02;26.42;;;17.38;;
38166;SDS011;23980;51.902;12.832;2022-08-26T05:19:05;31.45;;;17.92;;
38166;SDS011;23980;51.902;12.832;2022-08-26T05:24:06;35.80;;;17.88;;
38166;SDS011;23980;51.902;12.832;2022-08-26T05:29:11;30.38;;;16.70;;
38166;SDS011;23980;51.902;12.832;2022-08-26T05:34:12;31.00;;;19.00;;
38166;SDS011;23980;51.902;12.832;2022-08-26T05:39:13;32.25;;;17.73;;
38166;SDS011;23980;51.902;12.832;2022-08-26T05:44:14;32.13;;;17.27;;
38166;SDS011;23980;51.902;12.832;2022-08-26T05:49:19;40.58;;;17.63;;
38166;SDS011;23980;51.902;12.832;2022-08-26T05:54:20;28.58;;;16.60;;
38166;SDS011;23980;51.902;12.832;2022-08-26T05:59:23;33.08;;;18.08;;
38166;SDS011;23980;51.902;12.832;2022-08-26T06:04:23;31.80;;;16.92;;
38166;SDS011;23980;51.902;12.832;2022-08-26T06:09:24;32.60;;;17.65;;
38166;SDS011;23980;51.902;12.832;2022-08-26T06:14:26;31.60;;;18.75;;
38166;SDS011;23980;51.902;12.832;2022-08-26T06:19:26;40.85;;;19.88;;
38166;SDS011;23980;51.902;12.832;2022-08-26T06:24:27;38.53;;;17.92;;
38166;SDS011;23980;51.902;12.832;2022-08-26T06:29:54;42.80;;;17.38;;
38166;SDS011;23980;51.902;12.832;2022-08-26T06:35:00;42.47;;;18.17;;
38166;SDS011;23980;51.902;12.832;2022-08-26T06:40:01;35.88;;;17.48;;
38166;SDS011;23980;51.902;12.832;2022-08-26T06:45:03;42.47;;;18.52;;
38166;SDS011;23980;51.902;12.832;2022-08-26T06:50:04;32.65;;;16.02;;
38166;SDS011;23980;51.902;12.832;2022-08-26T06:55:08;32.90;;;17.60;;
38166;SDS011;23980;51.902;12.832;2022-08-26T07:00:09;34.13;;;17.25;;
38166;SDS011;23980;51.902;12.832;2022-08-26T07:05:10;38.53;;;17.83;;
38166;SDS011;23980;51.902;12.832;2022-08-26T07:10:13;34.85;;;18.92;;
38166;SDS011;23980;51.902;12.832;2022-08-26T07:15:14;37.58;;;18.83;;
38166;SDS011;23980;51.902;12.832;2022-08-26T07:20:25;43.53;;;18.08;;
38166;SDS011;23980;51.902;12.832;2022-08-26T07:25:26;54.67;;;17.55;;
38166;SDS011;23980;51.902;12.832;2022-08-26T07:30:30;54.40;;;17.58;;
38166;SDS011;23980;51.902;12.832;2022-08-26T07:35:30;46.03;;;19.35;;
38166;SDS011;23980;51.902;12.832;2022-08-26T07:40:31;50.45;;;19.13;;
38166;SDS011;23980;51.902;12.832;2022-08-26T07:45:32;47.42;;;18.48;;
38166;SDS011;23980;51.902;12.832;2022-08-26T07:50:39;43.08;;;17.17;;
38166;SDS011;23980;51.902;12.832;2022-08-26T07:55:40;49.28;;;17.55;;
38166;SDS011;23980;51.902;12.832;2022-08-26T08:00:42;35.92;;;15.80;;
38166;SDS011;23980;51.902;12.832;2022-08-26T08:05:42;50.85;;;17.60;;
38166;SDS011;23980;51.902;12.832;2022-08-26T08:10:43;42.20;;;17.70;;
38166;SDS011;23980;51.902;12.832;2022-08-26T08:15:45;54.03;;;15.93;;
38166;SDS011;23980;51.902;12.832;2022-08-26T08:20:45;36.38;;;16.30;;
38166;SDS011;23980;51.902;12.832;2022-08-26T08:25:46;46.95;;;16.00;;
38166;SDS011;23980;51.902;12.832;2022-08-26T08:30:48;31.38;;;14.35;;
38166;SDS011;23980;51.902;12.832;2022-08-26T08:35:49;32.88;;;15.25;;
38166;SDS011;23980;51.902;12.832;2022-08-26T08:40:50;44.00;;;15.07;;
38166;SDS011;23980;51.902;12.832;2022-08-26T08:46:03;37.15;;;15.25;;
38166;SDS011;23980;51.902;12.832;2022-08-26T09:01:29;44.22;;;13.07;;
38166;SDS011;23980;51.902;12.832;2022-08-26T09:06:55;41.53;;;13.40;;
38166;SDS011;23980;51.902;12.832;2022-08-26T09:11:58;55.13;;;14.88;;
38166;SDS011;23980;51.902;12.832;2022-08-26T09:17:05;32.08;;;11.88;;
38166;SDS011;23980;51.902;12.832;2022-08-26T09:22:08;32.50;;;14.25;;
38166;SDS011;23980;51.902;12.832;2022-08-26T09:27:09;31.65;;;11.38;;
38166;SDS011;23980;51.902;12.832;2022-08-26T09:42:39;45.85;;;12.18;;
38166;SDS011;23980;51.902;12.832;2022-08-26T09:52:46;35.30;;;9.15;;
38166;SDS011;23980;51.902;12.832;2022-08-26T09:58:02;29.92;;;7.47;;
38166;SDS011;23980;51.902;12.832;2022-08-26T10:03:05;29.20;;;8.13;;
38166;SDS011;23980;51.902;12.832;2022-08-26T10:13:42;35.08;;;9.68;;
38166;SDS011;23980;51.902;12.832;2022-08-26T10:18:57;37.55;;;10.60;;
38166;SDS011;23980;51.902;12.832;2022-08-26T10:24:04;41.58;;;10.43;;
38166;SDS011;23980;51.902;12.832;2022-08-26T10:29:12;39.58;;;9.48;;
38166;SDS011;23980;51.902;12.832;2022-08-26T10:34:17;33.58;;;10.50;;
38166;SDS011;23980;51.902;12.832;2022-08-26T10:44:31;34.28;;;8.98;;
38166;SDS011;23980;51.902;12.832;2022-08-26T10:49:34;32.17;;;9.63;;
38166;SDS011;23980;51.902;12.832;2022-08-26T10:54:37;23.90;;;7.28;;
38166;SDS011;23980;51.902;12.832;2022-08-26T11:05:23;12.32;;;4.90;;
38166;SDS011;23980;51.902;12.832;2022-08-26T11:20:41;8.48;;;3.92;;
38166;SDS011;23980;51.902;12.832;2022-08-26T11:31:07;14.60;;;4.88;;
38166;SDS011;23980;51.902;12.832;2022-08-26T11:36:26;8.60;;;3.90;;
38166;SDS011;23980;51.902;12.832;2022-08-26T11:41:35;13.40;;;4.95;;
38166;SDS011;23980;51.902;12.832;2022-08-26T11:46:37;12.20;;;4.32;;
38166;SDS011;23980;51.902;12.832;2022-08-26T11:51:37;13.13;;;4.68;;
38166;SDS011;23980;51.902;12.832;2022-08-26T11:56:39;19.27;;;4.93;;
38166;SDS011;23980;51.902;12.832;2022-08-26T12:01:43;11.57;;;4.63;;
38166;SDS011;23980;51.902;12.832;2022-08-26T12:06:48;17.77;;;5.07;;
38166;SDS011;23980;51.902;12.832;2022-08-26T12:11:50;17.40;;;5.97;;
38166;SDS011;23980;51.902;12.832;2022-08-26T12:16:54;12.48;;;6.57;;
38166;SDS011;23980;51.902;12.832;2022-08-26T12:22:25;10.60;;;5.60;;
38166;SDS011;23980;51.902;12.832;2022-08-26T12:27:38;14.02;;;6.32;;
38166;SDS011;23980;51.902;12.832;2022-08-26T12:32:42;17.55;;;6.50;;
38166;SDS011;23980;51.902;12.832;2022-08-26T12:37:49;17.15;;;6.10;;
38166;SDS011;23980;51.902;12.832;2022-08-26T12:42:52;15.23;;;6.32;;
38166;SDS011;23980;51.902;12.832;2022-08-26T12:48:19;14.05;;;6.22;;
38166;SDS011;23980;51.902;12.832;2022-08-26T12:53:31;19.38;;;6.88;;
38166;SDS011;23980;51.902;12.832;2022-08-26T12:58:35;24.27;;;6.85;;
38166;SDS011;23980;51.902;12.832;2022-08-26T13:03:39;16.05;;;7.38;;
38166;SDS011;23980;51.902;12.832;2022-08-26T13:08:48;16.08;;;7.07;;
38166;SDS011;23980;51.902;12.832;2022-08-26T13:19:24;24.35;;;10.02;;
38166;SDS011;23980;51.902;12.832;2022-08-26T13:24:27;18.98;;;9.02;;
38166;SDS011;23980;51.902;12.832;2022-08-26T13:29:35;21.17;;;9.23;;
38166;SDS011;23980;51.902;12.832;2022-08-26T13:34:35;22.30;;;7.95;;
38166;SDS011;23980;51.902;12.832;2022-08-26T13:39:37;16.42;;;7.97;;
38166;SDS011;23980;51.902;12.832;2022-08-26T13:44:38;20.48;;;8.13;;
38166;SDS011;23980;51.902;12.832;2022-08-26T13:49:42;18.98;;;9.13;;
38166;SDS011;23980;51.902;12.832;2022-08-26T13:54:43;17.90;;;7.63;;
38166;SDS011;23980;51.902;12.832;2022-08-26T13:59:43;12.45;;;5.13;;
38166;SDS011;23980;51.902;12.832;2022-08-26T14:04:46;14.57;;;5.72;;
38166;SDS011;23980;51.902;12.832;2022-08-26T14:09:46;11.38;;;5.70;;
38166;SDS011;23980;51.902;12.832;2022-08-26T14:14:47;18.38;;;5.35;;
38166;SDS011;23980;51.902;12.832;2022-08-26T14:19:48;13.65;;;5.93;;
38166;SDS011;23980;51.902;12.832;2022-08-26T14:24:49;10.88;;;6.10;;
38166;SDS011;23980;51.902;12.832;2022-08-26T14:29:50;15.50;;;6.45;;
38166;SDS011;23980;51.902;12.832;2022-08-26T14:34:51;10.32;;;5.65;;
38166;SDS011;23980;51.902;12.832;2022-08-26T14:39:53;13.40;;;6.05;;
38166;SDS011;23980;51.902;12.832;2022-08-26T14:44:55;10.35;;;5.50;;
38166;SDS011;23980;51.902;12.832;2022-08-26T14:49:58;11.63;;;5.50;;
38166;SDS011;23980;51.902;12.832;2022-08-26T14:54:58;9.13;;;5.68;;
38166;SDS011;23980;51.902;12.832;2022-08-26T14:59:59;10.35;;;5.25;;
38166;SDS011;23980;51.902;12.832;2022-08-26T15:05:03;13.27;;;6.50;;
38166;SDS011;23980;51.902;12.832;2022-08-26T15:10:04;11.75;;;4.47;;
38166;SDS011;23980;51.902;12.832;2022-08-26T15:15:07;13.32;;;6.07;;
38166;SDS011;23980;51.902;12.832;2022-08-26T15:20:15;10.93;;;6.65;;
38166;SDS011;23980;51.902;12.832;2022-08-26T15:25:16;10.20;;;4.97;;
38166;SDS011;23980;51.902;12.832;2022-08-26T15:30:17;13.23;;;5.50;;
38166;SDS011;23980;51.902;12.832;2022-08-26T15:35:17;16.35;;;5.63;;
38166;SDS011;23980;51.902;12.832;2022-08-26T15:40:19;15.18;;;6.18;;
38166;SDS011;23980;51.902;12.832;2022-08-26T15:45:20;18.55;;;7.18;;
38166;SDS011;23980;51.902;12.832;2022-08-26T15:50:22;13.95;;;7.85;;
38166;SDS011;23980;51.902;12.832;2022-08-26T15:55:24;15.23;;;7.65;;
38166;SDS011;23980;51.902;12.832;2022-08-26T16:00:24;19.83;;;6.88;;
38166;SDS011;23980;51.902;12.832;2022-08-26T16:05:27;12.98;;;6.40;;
38166;SDS011;23980;51.902;12.832;2022-08-26T16:10:28;14.27;;;6.97;;
38166;SDS011;23980;51.902;12.832;2022-08-26T16:15:32;16.15;;;7.88;;
38166;SDS011;23980;51.902;12.832;2022-08-26T16:20:34;15.82;;;8.13;;
38166;SDS011;23980;51.902;12.832;2022-08-26T16:25:36;24.33;;;9.73;;
38166;SDS011;23980;51.902;12.832;2022-08-26T16:30:38;24.88;;;8.77;;
38166;SDS011;23980;51.902;12.832;2022-08-26T16:35:39;18.63;;;8.73;;
38166;SDS011;23980;51.902;12.832;2022-08-26T16:40:42;21.27;;;9.65;;
38166;SDS011;23980;51.902;12.832;2022-08-26T16:45:42;14.98;;;9.00;;
38166;SDS011;23980;51.902;12.832;2022-08-26T16:50:43;20.80;;;9.63;;
38166;SDS011;23980;51.902;12.832;2022-08-26T16:55:44;20.60;;;10.70;;
38166;SDS011;23980;51.902;12.832;2022-08-26T17:00:47;20.20;;;9.70;;
38166;SDS011;23980;51.902;12.832;2022-08-26T17:05:48;19.90;;;10.25;;
38166;SDS011;23980;51.902;12.832;2022-08-26T17:10:50;21.80;;;10.32;;
38166;SDS011;23980;51.902;12.832;2022-08-26T17:15:51;19.60;;;12.13;;
38166;SDS011;23980;51.902;12.832;2022-08-26T17:20:58;16.58;;;10.02;;
38166;SDS011;23980;51.902;12.832;2022-08-26T17:26:01;30.85;;;11.48;;
38166;SDS011;23980;51.902;12.832;2022-08-26T17:31:03;20.88;;;10.25;;
38166;SDS011;23980;51.902;12.832;2022-08-26T17:36:04;18.02;;;11.02;;
38166;SDS011;23980;51.902;12.832;2022-08-26T17:41:09;19.80;;;11.18;;
38166;SDS011;23980;51.902;12.832;2022-08-26T17:46:13;22.08;;;10.48;;
38166;SDS011;23980;51.902;12.832;2022-08-26T17:51:15;28.10;;;11.82;;
38166;SDS011;23980;51.902;12.832;2022-08-26T17:56:21;22.35;;;10.95;;
38166;SDS011;23980;51.902;12.832;2022-08-26T18:01:24;22.42;;;13.15;;
38166;SDS011;23980;51.902;12.832;2022-08-26T18:06:27;32.05;;;13.07;;
38166;SDS011;23980;51.902;12.832;2022-08-26T18:11:30;20.00;;;12.00;;
38166;SDS011;23980;51.902;12.832;2022-08-26T18:16:33;17.77;;;13.95;;
38166;SDS011;23980;51.902;12.832;2022-08-26T18:21:37;19.77;;;13.38;;
38166;SDS011;23980;51.902;12.832;2022-08-26T18:26:38;23.30;;;12.45;;
38166;SDS011;23980;51.902;12.832;2022-08-26T18:31:47;24.95;;;15.38;;
38166;SDS011;23980;51.902;12.832;2022-08-26T18:36:48;24.38;;;15.55;;
38166;SDS011;23980;51.902;12.832;2022-08-26T18:41:51;19.95;;;15.45;;
38166;SDS011;23980;51.902;12.832;2022-08-26T18:46:52;34.78;;;14.68;;
38166;SDS011;23980;51.902;12.832;2022-08-26T18:51:54;26.63;;;15.60;;
38166;SDS011;23980;51.902;12.832;2022-08-26T18:56:55;22.77;;;16.05;;
38166;SDS011;23980;51.902;12.832;2022-08-26T19:01:56;24.00;;;16.90;;
38166;SDS011;23980;51.902;12.832;2022-08-26T19:06:58;20.73;;;15.65;;
38166;SDS011;23980;51.902;12.832;2022-08-26T19:11:59;20.90;;;16.35;;
38166;SDS011;23980;51.902;12.832;2022-08-26T19:17:03;23.35;;;18.58;;
38166;SDS011;23980;51.902;12.832;2022-08-26T19:22:04;25.50;;;18.58;;
38166;SDS011;23980;51.902;12.832;2022-08-26T19:27:06;21.83;;;16.20;;
38166;SDS011;23980;51.902;12.832;2022-08-26T19:32:13;20.52;;;17.42;;
38166;SDS011;23980;51.902;12.832;2022-08-26T19:37:20;30.17;;;18.58;;
38166;SDS011;23980;51.902;12.832;2022-08-26T19:42:23;25.13;;;20.65;;
38166;SDS011;23980;51.902;12.832;2022-08-26T19:47:30;15.43;;;10.45;;
38166;SDS011;23980;51.902;12.832;2022-08-26T19:52:31;29.42;;;17.00;;
38166;SDS011;23980;51.902;12.832;2022-08-26T19:57:38;29.98;;;15.07;;
38166;SDS011;23980;51.902;12.832;2022-08-26T20:02:49;28.50;;;16.77;;
38166;SDS011;23980;51.902;12.832;2022-08-26T20:07:52;35.53;;;18.38;;
38166;SDS011;23980;51.902;12.832;2022-08-26T20:13:11;36.03;;;21.58;;
38166;SDS011;23980;51.902;12.832;2022-08-26T20:18:12;42.47;;;29.02;;
38166;SDS011;23980;51.902;12.832;2022-08-26T20:23:31;35.45;;;24.40;;
38166;SDS011;23980;51.902;12.832;2022-08-26T20:28:34;31.20;;;20.33;;
38166;SDS011;23980;51.902;12.832;2022-08-26T20:33:42;32.88;;;23.63;;
38166;SDS011;23980;51.902;12.832;2022-08-26T20:38:52;34.45;;;22.23;;
38166;SDS011;23980;51.902;12.832;2022-08-26T20:44:01;34.00;;;19.58;;
38166;SDS011;23980;51.902;12.832;2022-08-26T20:49:03;26.88;;;16.73;;
38166;SDS011;23980;51.902;12.832;2022-08-26T20:54:05;25.52;;;17.85;;
38166;SDS011;23980;51.902;12.832;2022-08-26T20:59:06;22.70;;;17.00;;
38166;SDS011;23980;51.902;12.832;2022-08-26T21:04:14;23.92;;;15.50;;
38166;SDS011;23980;51.902;12.832;2022-08-26T21:09:17;31.05;;;20.17;;
38166;SDS011;23980;51.902;12.832;2022-08-26T21:19:53;21.95;;;16.48;;
38166;SDS011;23980;51.902;12.832;2022-08-26T21:24:54;24.15;;;18.73;;
38166;SDS011;23980;51.902;12.832;2022-08-26T21:30:02;27.98;;;22.13;;
38166;SDS011;23980;51.902;12.832;2022-08-26T21:35:05;25.20;;;19.25;;
38166;SDS011;23980;51.902;12.832;2022-08-26T21:40:07;21.30;;;15.18;;
38166;SDS011;23980;51.902;12.832;2022-08-26T21:45:17;26.38;;;15.50;;
38166;SDS011;23980;51.902;12.832;2022-08-26T21:50:17;27.10;;;15.98;;
38166;SDS011;23980;51.902;12.832;2022-08-26T21:55:20;27.40;;;14.68;;
38166;SDS011;23980;51.902;12.832;2022-08-26T22:00:21;32.70;;;19.80;;
38166;SDS011;23980;51.902;12.832;2022-08-26T22:05:25;26.45;;;18.90;;
38166;SDS011;23980;51.902;12.832;2022-08-26T22:10:28;27.17;;;18.15;;
38166;SDS011;23980;51.902;12.832;2022-08-26T22:15:36;33.33;;;22.48;;
38166;SDS011;23980;51.902;12.832;2022-08-26T22:20:48;17.02;;;11.05;;
38166;SDS011;23980;51.902;12.832;2022-08-26T22:25:51;20.15;;;15.90;;
38166;SDS011;23980;51.902;12.832;2022-08-26T22:30:58;24.55;;;18.30;;
38166;SDS011;23980;51.902;12.832;2022-08-26T22:36:00;15.95;;;8.65;;
38166;SDS011;23980;51.902;12.832;2022-08-26T22:41:05;20.55;;;8.25;;
38166;SDS011;23980;51.902;12.832;2022-08-26T22:46:19;13.48;;;9.10;;
38166;SDS011;23980;51.902;12.832;2022-08-26T22:51:25;21.90;;;16.55;;
38166;SDS011;23980;51.902;12.832;2022-08-26T22:56:26;19.33;;;14.10;;
38166;SDS011;23980;51.902;12.832;2022-08-26T23:06:39;29.45;;;16.15;;
38166;SDS011;23980;51.902;12.832;2022-08-26T23:11:44;28.65;;;13.57;;
38166;SDS011;23980;51.902;12.832;2022-08-26T23:16:47;17.10;;;12.10;;
38166;SDS011;23980;51.902;12.832;2022-08-26T23:21:58;22.08;;;11.73;;
38166;SDS011;23980;51.902;12.832;2022-08-26T23:26:59;14.82;;;11.52;;
38166;SDS011;23980;51.902;12.832;2022-08-26T23:32:03;19.05;;;12.40;;
38166;SDS011;23980;51.902;12.832;2022-08-26T23:37:07;20.63;;;10.95;;
38166;SDS011;23980;51.902;12.832;2022-08-26T23:42:08;21.15;;;13.75;;
38166;SDS011;23980;51.902;12.832;2022-08-26T23:47:11;19.13;;;12.52;;
38166;SDS011;23980;51.902;12.832;2022-08-26T23:52:12;27.45;;;17.52;;
38166;SDS011;23980;51.902;12.832;2022-08-26T23:57:31;25.40;;;16.40;;
